Time;durP1;ratioP1;P1;durP2;ratioP2;P2;SDS_P1;SDS_P2;PMS_P1;PMS_P2;Temp;Humidity;BMP_temperature;BMP_pressure;BME280_temperature;BME280_humidity;BME280_pressure;Samples;Min_cycle;Max_cycle;Signal;HPM_P1;HPM_P2
2024/04/10 00:01:53;;;;;;;2.55;1.02;;;9.10;99.90;;;;;;5453214;26;19995;-72
2024/04/10 00:04:21;;;;;;;5.43;1.40;;;9.00;99.90;;;;;;5423146;26;20006;-72
2024/04/10 00:06:49;;;;;;;4.45;0.75;;;9.00;99.90;;;;;;5451824;26;20543;-72
2024/04/10 00:09:16;;;;;;;6.65;1.90;;;9.00;99.90;;;;;;5419931;26;20127;-72
2024/04/10 00:11:43;;;;;;;0.82;0.82;;;9.00;99.90;;;;;;5451623;26;20007;-72
2024/04/10 00:14:10;;;;;;;2.80;1.00;;;9.00;99.90;;;;;;5363388;26;20010;-72
2024/04/10 00:16:37;;;;;;;1.13;0.60;;;9.00;99.90;;;;;;5421399;26;19999;-72
2024/04/10 00:19:06;;;;;;;4.97;1.33;;;9.00;99.90;;;;;;5452913;26;20075;-72
2024/04/10 00:21:35;;;;;;;1.50;0.63;;;9.10;99.90;;;;;;5421857;26;20003;-73
2024/04/10 00:24:02;;;;;;;3.55;0.95;;;9.10;99.90;;;;;;5421531;26;19999;-72
2024/04/10 00:26:29;;;;;;;1.98;0.85;;;9.10;99.90;;;;;;5452493;26;20361;-72
2024/04/10 00:28:57;;;;;;;4.10;0.70;;;9.10;99.90;;;;;;5421558;26;19998;-72
2024/04/10 00:31:24;;;;;;;2.85;0.85;;;9.10;99.90;;;;;;5421345;26;20470;-73
2024/04/10 00:33:51;;;;;;;6.80;0.73;;;9.20;99.90;;;;;;5452043;26;20079;-72
2024/04/10 00:36:18;;;;;;;4.10;1.10;;;9.20;99.90;;;;;;5452914;26;20328;-72
2024/04/10 00:38:45;;;;;;;3.92;1.00;;;9.20;99.90;;;;;;5421036;26;20010;-72
2024/04/10 00:41:13;;;;;;;5.63;0.93;;;9.20;99.90;;;;;;5420806;26;20005;-72
2024/04/10 00:43:40;;;;;;;5.60;0.93;;;9.10;99.90;;;;;;5452253;26;20005;-72
2024/04/10 00:46:13;;;;;;;0.68;0.63;;;9.10;99.90;;;;;;5421354;26;20014;-72
2024/04/10 00:48:41;;;;;;;2.05;0.68;;;9.10;99.90;;;;;;5452349;26;19995;-72
2024/04/10 00:51:16;;;;;;;0.82;0.55;;;9.10;99.90;;;;;;5421674;26;20044;-73
2024/04/10 00:53:43;;;;;;;1.65;1.23;;;9.20;99.90;;;;;;5452277;26;20021;-72
2024/04/10 00:56:11;;;;;;;1.85;1.02;;;9.10;99.90;;;;;;5452352;26;20053;-72
2024/04/10 00:58:39;;;;;;;6.80;1.00;;;9.10;99.90;;;;;;5420827;26;20003;-72
2024/04/10 01:01:07;;;;;;;2.92;0.75;;;9.10;99.90;;;;;;5451057;26;20002;-72
2024/04/10 01:03:36;;;;;;;1.38;0.93;;;9.20;99.90;;;;;;5450891;26;19998;-72
2024/04/10 01:06:04;;;;;;;4.47;0.93;;;9.20;99.90;;;;;;5452381;26;20448;-72
2024/04/10 01:08:33;;;;;;;3.55;0.63;;;9.20;99.90;;;;;;5420511;26;19998;-72
2024/04/10 01:11:02;;;;;;;5.80;0.80;;;9.20;99.90;;;;;;5451980;26;19999;-72
2024/04/10 01:13:30;;;;;;;4.90;1.35;;;9.20;99.90;;;;;;5420456;26;20075;-72
2024/04/10 01:15:58;;;;;;;5.28;1.15;;;9.30;99.90;;;;;;5452141;26;19994;-72
2024/04/10 01:18:25;;;;;;;0.60;0.50;;;9.30;99.90;;;;;;5452496;26;19995;-72
2024/04/10 01:20:52;;;;;;;2.40;1.00;;;9.30;99.90;;;;;;5420558;26;19999;-72
2024/04/10 01:23:20;;;;;;;5.25;1.30;;;9.40;99.90;;;;;;5454933;26;19994;-72
2024/04/10 01:25:47;;;;;;;6.50;1.90;;;9.30;99.90;;;;;;5455477;26;20332;-72
2024/04/10 01:28:15;;;;;;;1.40;0.88;;;9.30;99.90;;;;;;5394364;26;20005;-72
2024/04/10 01:30:43;;;;;;;3.88;1.35;;;9.30;99.90;;;;;;5423343;26;19994;-72
2024/04/10 01:33:10;;;;;;;3.50;1.42;;;9.30;99.90;;;;;;5455207;26;20014;-72
2024/04/10 01:35:37;;;;;;;4.80;1.40;;;9.20;99.90;;;;;;5454927;26;20351;-72
2024/04/10 01:38:04;;;;;;;5.03;1.02;;;9.20;99.90;;;;;;5455192;26;20332;-72
2024/04/10 01:40:32;;;;;;;2.17;0.60;;;9.20;99.90;;;;;;5455171;26;20023;-71
2024/04/10 01:42:58;;;;;;;3.83;2.35;;;9.30;99.90;;;;;;5423000;26;19999;-72
2024/04/10 01:45:26;;;;;;;4.45;1.65;;;9.20;99.90;;;;;;5423284;26;19998;-72
2024/04/10 01:47:53;;;;;;;5.35;1.30;;;9.20;99.90;;;;;;5423184;26;20113;-72
2024/04/10 01:50:20;;;;;;;2.05;0.52;;;9.20;99.90;;;;;;5455167;26;20092;-72
2024/04/10 01:52:47;;;;;;;2.25;1.15;;;9.20;99.90;;;;;;5423248;26;19999;-72
2024/04/10 01:55:14;;;;;;;2.70;1.23;;;9.20;99.90;;;;;;5454985;26;20005;-72
2024/04/10 01:57:44;;;;;;;1.23;0.38;;;9.30;99.90;;;;;;5454719;26;20027;-72
2024/04/10 02:00:11;;;;;;;5.60;0.73;;;9.30;99.90;;;;;;5455261;26;20010;-72
2024/04/10 02:02:38;;;;;;;9.40;1.17;;;9.30;99.90;;;;;;5423383;26;20014;-72
2024/04/10 02:05:06;;;;;;;0.60;0.60;;;9.30;99.90;;;;;;5423692;26;20007;-72
2024/04/10 02:07:33;;;;;;;1.92;1.08;;;9.30;99.90;;;;;;5454904;26;20397;-72
2024/04/10 02:10:00;;;;;;;1.58;0.82;;;9.30;99.90;;;;;;5454772;26;20436;-72
2024/04/10 02:12:27;;;;;;;1.17;0.40;;;9.20;99.90;;;;;;5422747;26;20056;-72
2024/04/10 02:14:54;;;;;;;3.10;0.55;;;9.10;99.90;;;;;;5454423;26;20010;-72
2024/04/10 02:17:21;;;;;;;0.82;0.30;;;9.00;99.90;;;;;;5393445;26;19999;-72
2024/04/10 02:19:51;;;;;;;0.38;0.35;;;8.90;99.90;;;;;;5454274;26;19999;-72
2024/04/10 02:22:18;;;;;;;1.08;0.57;;;8.80;99.90;;;;;;5454512;26;20339;-72
2024/04/10 02:24:45;;;;;;;0.28;0.28;;;8.70;99.90;;;;;;5454712;26;20010;-72
2024/04/10 02:27:12;;;;;;;0.45;0.30;;;8.70;99.90;;;;;;5423146;26;19998;-72
2024/04/10 02:29:40;;;;;;;1.27;0.25;;;8.60;99.90;;;;;;5423008;26;20009;-72
2024/04/10 02:32:07;;;;;;;2.58;0.98;;;8.50;99.90;;;;;;5422494;26;20014;-73
2024/04/10 02:34:35;;;;;;;1.50;0.20;;;8.50;99.90;;;;;;5453368;26;19994;-73
2024/04/10 02:37:03;;;;;;;2.13;0.60;;;8.40;99.90;;;;;;5423197;26;20048;-72
2024/04/10 02:39:30;;;;;;;0.93;0.28;;;8.40;99.90;;;;;;5423292;26;20005;-72
2024/04/10 02:41:57;;;;;;;0.10;0.10;;;8.30;99.90;;;;;;5454135;26;20017;-72
2024/04/10 02:44:24;;;;;;;0.73;0.73;;;8.20;99.90;;;;;;5423313;26;19995;-72
2024/04/10 02:46:51;;;;;;;1.05;0.22;;;8.20;99.90;;;;;;5364337;26;20005;-72
2024/04/10 02:49:19;;;;;;;0.38;0.30;;;8.30;99.90;;;;;;5422907;26;20317;-72
2024/04/10 02:51:46;;;;;;;1.38;0.63;;;8.30;99.90;;;;;;5422226;26;20011;-72
2024/04/10 02:54:13;;;;;;;2.15;1.38;;;8.30;99.90;;;;;;5454182;26;20011;-73
2024/04/10 02:56:40;;;;;;;0.40;0.40;;;8.40;99.90;;;;;;5454177;26;20013;-73
2024/04/10 02:59:07;;;;;;;0.40;0.40;;;8.40;99.90;;;;;;5453765;26;19998;-72
2024/04/10 03:01:35;;;;;;;1.73;0.40;;;8.50;99.90;;;;;;5406284;26;20007;-72
2024/04/10 03:04:02;;;;;;;1.02;0.35;;;8.50;99.90;;;;;;5446268;26;20433;-72
2024/04/10 03:06:29;;;;;;;0.65;0.40;;;8.60;99.90;;;;;;5490110;26;20638;-72
2024/04/10 03:08:56;;;;;;;0.68;0.68;;;8.70;99.90;;;;;;5457570;26;20074;-73
2024/04/10 03:11:23;;;;;;;1.05;0.57;;;8.70;99.90;;;;;;5428245;26;19998;-72
2024/04/10 03:13:52;;;;;;;0.68;0.68;;;8.80;99.90;;;;;;5458683;26;20009;-72
2024/04/10 03:16:19;;;;;;;0.90;0.65;;;8.80;99.90;;;;;;5488620;26;20477;-72
2024/04/10 03:18:46;;;;;;;0.28;0.28;;;8.80;99.90;;;;;;5458122;26;20002;-72
2024/04/10 03:21:13;;;;;;;1.67;0.47;;;8.80;99.90;;;;;;5457758;26;20002;-72
2024/04/10 03:23:41;;;;;;;5.13;0.57;;;8.90;99.90;;;;;;5458094;26;20002;-73
2024/04/10 03:26:09;;;;;;;4.25;0.70;;;8.90;99.90;;;;;;5490237;26;20439;-72
2024/04/10 03:28:36;;;;;;;1.27;0.65;;;8.90;99.90;;;;;;5489983;26;20012;-72
2024/04/10 03:31:05;;;;;;;0.40;0.22;;;8.90;99.90;;;;;;5490108;26;20010;-72
2024/04/10 03:33:33;;;;;;;1.02;0.55;;;8.90;99.90;;;;;;5490027;26;20074;-72
2024/04/10 03:36:01;;;;;;;3.72;0.52;;;8.80;99.90;;;;;;5457437;26;19998;-72
2024/04/10 03:38:28;;;;;;;1.15;0.50;;;8.80;99.90;;;;;;5457656;26;20447;-72
2024/04/10 03:40:55;;;;;;;0.20;0.20;;;8.70;99.90;;;;;;5457906;26;20051;-72
2024/04/10 03:43:23;;;;;;;0.98;0.60;;;8.70;99.90;;;;;;5458445;26;20347;-72
2024/04/10 03:45:51;;;;;;;1.00;0.40;;;8.70;99.90;;;;;;5428517;26;20413;-72
2024/04/10 03:48:18;;;;;;;0.68;0.30;;;8.70;99.90;;;;;;5427765;26;19998;-73
2024/04/10 03:50:46;;;;;;;3.03;0.90;;;8.60;99.90;;;;;;5490466;26;20013;-72
2024/04/10 03:53:13;;;;;;;0.45;0.28;;;8.60;99.90;;;;;;5457376;26;20004;-72
2024/04/10 03:55:40;;;;;;;0.15;0.15;;;8.50;99.90;;;;;;5489787;26;20008;-72
2024/04/10 03:58:09;;;;;;;1.63;0.65;;;8.40;99.90;;;;;;5458133;26;20070;-72
2024/04/10 04:00:36;;;;;;;1.52;1.42;;;8.30;99.90;;;;;;5457793;26;20407;-72
2024/04/10 04:03:04;;;;;;;2.83;1.35;;;8.30;99.90;;;;;;5457835;26;20043;-72
2024/04/10 04:05:31;;;;;;;4.88;1.00;;;8.30;99.90;;;;;;5457773;26;19998;-72
2024/04/10 04:07:58;;;;;;;2.75;0.47;;;8.30;99.90;;;;;;5456954;26;20006;-72
2024/04/10 04:10:26;;;;;;;4.20;1.00;;;8.20;99.90;;;;;;5427597;26;19998;-72
2024/04/10 04:12:53;;;;;;;4.88;1.33;;;8.20;99.90;;;;;;5457608;26;20451;-72
2024/04/10 04:15:20;;;;;;;1.33;0.45;;;8.20;99.90;;;;;;5489083;26;19998;-72
2024/04/10 04:17:47;;;;;;;2.92;1.02;;;8.20;99.90;;;;;;5457080;26;19998;-72
2024/04/10 04:20:14;;;;;;;4.57;1.23;;;8.30;99.90;;;;;;5427085;26;20431;-73
2024/04/10 04:22:41;;;;;;;2.22;0.77;;;8.30;99.90;;;;;;5489637;26;20006;-72
2024/04/10 04:25:08;;;;;;;8.32;1.10;;;8.40;99.90;;;;;;5457227;26;20361;-72
2024/04/10 04:27:36;;;;;;;4.07;0.68;;;8.50;99.90;;;;;;5456911;26;19998;-72
2024/04/10 04:30:03;;;;;;;1.65;1.02;;;8.50;99.90;;;;;;5457132;26;19994;-73
2024/04/10 04:32:32;;;;;;;3.05;1.27;;;8.60;99.90;;;;;;5427681;26;20322;-72
2024/04/10 04:34:59;;;;;;;2.85;0.57;;;8.60;99.90;;;;;;5457601;26;20031;-72
2024/04/10 04:37:26;;;;;;;1.98;1.10;;;8.70;99.90;;;;;;5489173;26;20014;-72
2024/04/10 04:39:53;;;;;;;3.78;1.83;;;8.70;99.90;;;;;;5457235;26;19994;-72
2024/04/10 04:42:21;;;;;;;3.70;1.45;;;8.80;99.90;;;;;;5426756;26;19994;-73
2024/04/10 04:44:48;;;;;;;2.15;0.82;;;8.60;99.90;;;;;;5457169;26;20022;-72
2024/04/10 04:47:16;;;;;;;0.90;0.57;;;8.50;99.90;;;;;;5426761;26;20012;-72
2024/04/10 04:49:43;;;;;;;3.83;1.00;;;8.30;99.90;;;;;;5457222;26;20002;-72
2024/04/10 04:52:10;;;;;;;1.20;1.00;;;8.20;99.90;;;;;;5456802;26;20013;-72
2024/04/10 04:54:37;;;;;;;2.33;1.10;;;8.10;99.90;;;;;;5488939;26;20002;-72
2024/04/10 04:57:09;;;;;;;2.45;1.23;;;8.00;99.90;;;;;;5487450;26;20002;-72
2024/04/10 04:59:36;;;;;;;4.05;1.58;;;7.90;99.90;;;;;;5456549;26;19998;-72
2024/04/10 05:02:03;;;;;;;2.60;1.30;;;7.80;99.90;;;;;;5454401;26;20006;-72
2024/04/10 05:07:16;;;;;;;5.03;0.90;;;7.70;99.90;;;;;;5487233;26;20010;-72
2024/04/10 05:09:49;;;;;;;4.55;1.27;;;7.70;99.90;;;;;;5488586;26;19994;-72
2024/04/10 05:12:16;;;;;;;5.97;1.55;;;7.90;99.90;;;;;;5488560;26;20013;-72
2024/04/10 05:14:51;;;;;;;5.25;1.50;;;7.90;99.90;;;;;;5488832;26;19994;-72
2024/04/10 05:17:19;;;;;;;1.02;0.60;;;8.00;99.90;;;;;;5456090;26;20436;-72
2024/04/10 05:19:46;;;;;;;5.78;1.70;;;8.10;99.90;;;;;;5456173;26;20021;-72
2024/04/10 05:22:13;;;;;;;1.67;1.08;;;8.20;99.90;;;;;;5456219;26;20320;-73
2024/04/10 05:24:41;;;;;;;6.72;2.15;;;8.30;99.90;;;;;;5456691;26;19995;-72
2024/04/10 05:27:20;;;;;;;5.38;1.50;;;8.40;99.90;;;;;;5456256;26;20009;-72
2024/04/10 05:29:57;;;;;;;8.18;1.40;;;8.40;99.90;;;;;;5429254;26;20265;-72
2024/04/10 05:32:24;;;;;;;5.20;1.85;;;8.40;99.90;;;;;;5455976;26;20010;-72
2024/04/10 05:34:52;;;;;;;6.65;2.05;;;8.40;99.90;;;;;;5456217;26;19998;-72
2024/04/10 05:37:21;;;;;;;9.00;1.95;;;8.40;99.90;;;;;;5487722;26;19994;-72
2024/04/10 05:39:50;;;;;;;11.32;1.42;;;8.40;99.90;;;;;;5488018;26;20048;-72
2024/04/10 05:42:17;;;;;;;6.25;1.33;;;8.50;99.90;;;;;;5455367;26;20017;-73
2024/04/10 05:44:44;;;;;;;2.72;1.05;;;8.60;99.90;;;;;;5487739;26;19999;-72
2024/04/10 05:47:11;;;;;;;9.40;1.95;;;8.60;99.90;;;;;;5487530;26;20447;-72
2024/04/10 05:49:38;;;;;;;4.18;2.50;;;8.60;99.90;;;;;;5487957;26;20335;-72
2024/04/10 05:52:05;;;;;;;5.35;1.55;;;8.50;99.90;;;;;;5488155;26;20067;-72
2024/04/10 05:54:32;;;;;;;7.47;3.08;;;8.50;99.90;;;;;;5455589;26;20005;-73
2024/04/10 05:57:00;;;;;;;3.60;2.20;;;8.50;99.90;;;;;;5487718;26;20065;-72
2024/04/10 05:59:27;;;;;;;6.95;2.25;;;8.60;99.90;;;;;;5487718;26;20005;-72
2024/04/10 06:01:54;;;;;;;3.67;1.35;;;8.70;99.90;;;;;;5480366;26;20443;-72
2024/04/10 06:04:22;;;;;;;4.88;1.55;;;8.70;99.90;;;;;;5419074;26;20098;-72
2024/04/10 06:06:49;;;;;;;5.43;1.20;;;8.80;99.90;;;;;;5389887;26;20010;-72
2024/04/10 06:09:16;;;;;;;5.65;2.20;;;8.90;99.90;;;;;;5363915;26;19999;-73
2024/04/10 06:11:43;;;;;;;9.20;2.20;;;9.00;99.90;;;;;;5454712;26;19999;-73
2024/04/10 06:14:10;;;;;;;2.50;1.38;;;9.30;99.90;;;;;;5454587;26;20043;-73
2024/04/10 06:16:37;;;;;;;9.88;1.95;;;9.70;99.90;;;;;;5423166;26;20017;-73
2024/04/10 06:19:04;;;;;;;12.68;2.15;;;10.30;99.90;;;;;;5423324;26;20003;-73
2024/04/10 06:21:31;;;;;;;7.38;1.85;;;11.00;99.90;;;;;;5454198;26;20014;-73
2024/04/10 06:23:58;;;;;;;7.13;1.83;;;11.50;99.90;;;;;;5454421;26;20010;-73
2024/04/10 06:26:25;;;;;;;7.22;2.58;;;12.10;99.90;;;;;;5454074;26;19999;-73
2024/04/10 06:28:54;;;;;;;6.72;1.40;;;12.60;99.90;;;;;;5422650;26;19995;-73
2024/04/10 06:31:21;;;;;;;6.88;1.45;;;13.00;99.90;;;;;;5454410;26;19994;-73
2024/04/10 06:33:48;;;;;;;5.55;1.48;;;13.30;99.90;;;;;;5423069;26;20067;-73
2024/04/10 06:36:15;;;;;;;9.68;2.97;;;13.70;99.90;;;;;;5422898;26;20014;-73
2024/04/10 06:38:42;;;;;;;2.90;1.50;;;14.00;99.90;;;;;;5454345;26;19995;-73
2024/04/10 06:41:09;;;;;;;6.75;1.83;;;14.30;99.90;;;;;;5422636;26;20006;-74
2024/04/10 06:43:36;;;;;;;6.32;1.75;;;14.50;99.90;;;;;;5422329;26;20023;-73
2024/04/10 06:46:07;;;;;;;13.52;2.72;;;14.90;99.90;;;;;;5454098;26;20013;-73
2024/04/10 06:48:35;;;;;;;11.52;2.33;;;15.20;99.90;;;;;;5392425;26;19998;-74
2024/04/10 06:51:05;;;;;;;6.35;2.50;;;15.50;99.90;;;;;;5421696;26;20455;-73
2024/04/10 06:53:33;;;;;;;12.50;3.00;;;15.60;98.70;;;;;;5463759;26;19998;-74
2024/04/10 06:56:06;;;;;;;8.02;1.73;;;16.00;99.60;;;;;;5489678;26;20009;-73
2024/04/10 06:58:34;;;;;;;7.30;2.70;;;16.20;97.40;;;;;;5453273;26;20017;-74
2024/04/10 07:01:03;;;;;;;7.15;2.88;;;16.40;97.40;;;;;;5453754;26;19999;-74
2024/04/10 07:03:32;;;;;;;7.18;2.78;;;16.60;97.10;;;;;;5453472;26;19999;-74
2024/04/10 07:06:03;;;;;;;5.43;1.90;;;17.00;97.40;;;;;;5453735;26;20007;-74
2024/04/10 07:08:35;;;;;;;7.70;2.40;;;17.00;94.30;;;;;;5422008;26;19995;-74
2024/04/10 07:11:11;;;;;;;7.15;2.15;;;16.90;93.40;;;;;;5393650;26;20351;-74
2024/04/10 07:13:51;;;;;;;7.10;2.25;;;17.00;94.20;;;;;;5453742;26;20079;-74
2024/04/10 07:16:19;;;;;;;8.77;2.30;;;17.20;93.00;;;;;;5453804;26;20436;-74
2024/04/10 07:18:47;;;;;;;5.07;2.40;;;17.20;91.70;;;;;;5421891;26;20068;-74
2024/04/10 07:21:15;;;;;;;7.40;1.98;;;17.30;92.40;;;;;;5421689;26;20075;-74
2024/04/10 07:23:45;;;;;;;4.57;1.45;;;17.50;93.10;;;;;;5453132;26;19998;-74
2024/04/10 07:26:17;;;;;;;8.40;2.47;;;17.90;90.90;;;;;;5453441;26;20462;-74
2024/04/10 07:28:52;;;;;;;5.10;2.03;;;18.20;92.40;;;;;;5435979;26;20052;-74
2024/04/10 07:31:39;;;;;;;7.50;2.05;;;18.60;88.80;;;;;;5420273;26;20468;-74
2024/04/10 07:34:06;;;;;;;12.48;2.85;;;18.60;90.00;;;;;;5452008;26;20452;-74
2024/04/10 07:36:34;;;;;;;6.32;2.35;;;18.70;90.20;;;;;;5419733;26;20017;-74
2024/04/10 07:39:05;;;;;;;8.02;2.83;;;18.80;88.30;;;;;;5451949;26;20035;-74
2024/04/10 07:41:32;;;;;;;4.88;1.92;;;18.90;86.90;;;;;;5420628;26;20003;-74
2024/04/10 07:44:00;;;;;;;5.57;2.08;;;18.70;87.40;;;;;;5452419;26;20002;-74
2024/04/10 07:46:27;;;;;;;4.63;2.85;;;18.90;87.80;;;;;;5421851;26;20448;-74
2024/04/10 07:48:56;;;;;;;6.60;2.50;;;19.00;86.00;;;;;;5421931;26;20003;-74
2024/04/10 07:51:25;;;;;;;2.95;1.73;;;19.30;87.60;;;;;;5392126;26;20003;-74
2024/04/10 07:53:52;;;;;;;3.80;1.65;;;19.50;85.40;;;;;;5453188;26;19999;-74
2024/04/10 07:56:19;;;;;;;3.17;1.70;;;19.40;82.70;;;;;;5392095;26;19994;-74
2024/04/10 07:58:46;;;;;;;6.20;1.88;;;19.50;81.00;;;;;;5451362;26;19995;-74
2024/04/10 08:01:14;;;;;;;3.60;1.65;;;19.50;81.00;;;;;;5421319;26;20402;-74
2024/04/10 08:03:41;;;;;;;5.55;2.05;;;19.40;81.80;;;;;;5420751;26;20039;-74
2024/04/10 08:06:12;;;;;;;6.63;2.08;;;19.50;81.70;;;;;;5421704;26;20512;-74
2024/04/10 08:08:42;;;;;;;5.00;1.63;;;19.90;81.20;;;;;;5420952;26;20031;-74
2024/04/10 08:11:13;;;;;;;4.05;1.92;;;20.30;80.30;;;;;;5421612;26;19999;-75
2024/04/10 08:13:41;;;;;;;7.43;2.50;;;20.90;79.60;;;;;;5450940;26;20019;-75
2024/04/10 08:16:12;;;;;;;4.20;1.77;;;21.10;77.10;;;;;;5391731;26;20385;-75
2024/04/10 08:18:41;;;;;;;6.20;1.40;;;21.10;75.50;;;;;;5452528;26;19998;-74
2024/04/10 08:21:13;;;;;;;6.05;1.90;;;20.80;74.70;;;;;;5420937;26;19999;-75
2024/04/10 08:23:42;;;;;;;6.00;1.80;;;20.50;75.80;;;;;;5452376;26;20002;-75
2024/04/10 08:26:11;;;;;;;3.67;2.10;;;20.60;76.20;;;;;;5421392;26;20003;-75
2024/04/10 08:28:45;;;;;;;5.25;1.60;;;20.70;73.80;;;;;;5421399;26;19999;-74
2024/04/10 08:31:14;;;;;;;2.15;1.27;;;20.10;74.90;;;;;;5451746;26;20022;-74
2024/04/10 08:33:46;;;;;;;4.50;1.42;;;19.60;75.50;;;;;;5420508;26;19999;-74
2024/04/10 08:36:16;;;;;;;4.00;1.58;;;19.20;75.70;;;;;;5421334;26;20382;-74
2024/04/10 08:38:44;;;;;;;5.45;1.33;;;18.90;74.20;;;;;;5450499;26;20031;-74
2024/04/10 08:41:17;;;;;;;6.97;1.65;;;18.40;75.70;;;;;;5420733;26;20006;-74
2024/04/10 08:43:50;;;;;;;3.13;1.38;;;18.00;76.60;;;;;;5452057;26;20013;-74
2024/04/10 08:46:19;;;;;;;3.80;1.48;;;17.50;76.60;;;;;;5450304;26;20455;-74
2024/04/10 08:48:46;;;;;;;5.30;1.52;;;17.00;77.80;;;;;;5451743;26;20018;-74
2024/04/10 08:52:27;;;;;;;3.55;2.22;;;16.90;79.10;;;;;;5543463;25;1178253;-73
2024/04/10 08:54:54;;;;;;;5.05;2.33;;;17.00;78.70;;;;;;5511685;25;19997;-73
2024/04/10 08:57:21;;;;;;;5.18;2.67;;;16.90;79.90;;;;;;5544586;25;20072;-72
2024/04/10 08:59:49;;;;;;;3.97;2.50;;;17.00;80.40;;;;;;5544354;25;19997;-73
2024/04/10 09:02:16;;;;;;;5.28;2.13;;;17.50;80.10;;;;;;5542759;25;20012;-73
2024/04/10 09:04:45;;;;;;;4.68;3.72;;;18.40;79.60;;;;;;5542779;25;19993;-73
2024/04/10 09:07:17;;;;;;;4.80;1.95;;;19.00;77.40;;;;;;5543139;25;19993;-73
2024/04/10 09:09:44;;;;;;;5.18;2.10;;;19.50;77.30;;;;;;5544228;25;19997;-73
2024/04/10 09:12:21;;;;;;;4.93;2.35;;;19.80;74.50;;;;;;5544736;25;19998;-73
2024/04/10 09:14:48;;;;;;;5.47;2.53;;;19.50;75.50;;;;;;5544440;25;20069;-73
2024/04/10 09:17:17;;;;;;;6.38;3.08;;;19.20;76.20;;;;;;5544454;25;19997;-73
2024/04/10 09:19:44;;;;;;;2.17;1.48;;;18.80;76.80;;;;;;5512105;25;20009;-73
2024/04/10 09:22:13;;;;;;;6.30;2.60;;;18.30;77.50;;;;;;5542480;25;20069;-73
2024/04/10 09:24:40;;;;;;;4.03;2.28;;;17.40;78.90;;;;;;5542114;25;20220;-72
2024/04/10 09:27:10;;;;;;;5.25;3.08;;;16.60;80.70;;;;;;5542245;25;19997;-72
2024/04/10 09:29:38;;;;;;;5.53;2.58;;;16.00;82.20;;;;;;5543805;25;20009;-73
2024/04/10 09:32:08;;;;;;;4.97;2.58;;;15.90;82.60;;;;;;5544058;25;20381;-73
2024/04/10 09:34:35;;;;;;;6.30;2.47;;;16.70;81.60;;;;;;5542433;25;19997;-73
2024/04/10 09:37:04;;;;;;;3.00;2.10;;;17.60;79.60;;;;;;5542209;25;20434;-73
2024/04/10 09:39:32;;;;;;;6.40;2.42;;;18.40;77.50;;;;;;5543985;25;20009;-73
2024/04/10 09:41:59;;;;;;;3.75;2.28;;;18.60;77.40;;;;;;5541973;25;20012;-73
2024/04/10 09:44:30;;;;;;;5.85;2.75;;;18.50;77.70;;;;;;5542584;25;19997;-73
2024/04/10 09:46:59;;;;;;;6.45;2.50;;;18.00;78.40;;;;;;5511519;25;20030;-73
2024/04/10 09:49:28;;;;;;;4.43;2.83;;;17.80;79.30;;;;;;5542652;25;19993;-73
2024/04/10 09:51:59;;;;;;;6.00;3.00;;;17.80;77.80;;;;;;5541706;25;19997;-73
2024/04/10 09:54:27;;;;;;;7.05;2.88;;;17.90;77.20;;;;;;5511876;25;20080;-73
2024/04/10 09:56:57;;;;;;;4.30;2.70;;;18.20;77.20;;;;;;5542213;25;20003;-73
2024/04/10 09:59:24;;;;;;;6.20;2.97;;;18.70;76.30;;;;;;5542269;25;20001;-73
2024/04/10 10:01:55;;;;;;;4.55;2.13;;;19.20;74.70;;;;;;5538933;25;19998;-73
2024/04/10 10:04:22;;;;;;;4.00;2.13;;;19.60;74.90;;;;;;5526176;26;20007;-73
2024/04/10 10:07:00;;;;;;;6.97;2.75;;;20.00;74.20;;;;;;5527384;26;20012;-73
2024/04/10 10:09:27;;;;;;;6.88;3.58;;;19.70;74.70;;;;;;5527688;25;20018;-73
2024/04/10 10:12:01;;;;;;;3.55;1.90;;;19.90;74.20;;;;;;5527290;25;20101;-73
2024/04/10 10:14:30;;;;;;;6.60;2.78;;;20.00;74.30;;;;;;5495237;26;20008;-73
2024/04/10 10:17:08;;;;;;;3.03;2.60;;;19.70;73.20;;;;;;5495012;26;19997;-73
2024/04/10 10:19:36;;;;;;;5.05;2.78;;;18.60;74.10;;;;;;5525943;26;20074;-73
2024/04/10 10:22:04;;;;;;;4.68;2.60;;;18.20;75.10;;;;;;5527315;26;20012;-74
2024/04/10 10:24:33;;;;;;;6.80;2.05;;;18.00;75.90;;;;;;5528021;26;19993;-72
2024/04/10 10:27:01;;;;;;;5.32;2.40;;;17.60;77.20;;;;;;5525555;26;19993;-72
2024/04/10 10:29:30;;;;;;;3.50;1.58;;;17.30;76.90;;;;;;5528158;25;19994;-72
2024/04/10 10:32:05;;;;;;;7.47;2.67;;;16.80;78.30;;;;;;5527092;25;20005;-72
2024/04/10 10:34:32;;;;;;;3.30;2.00;;;16.20;78.70;;;;;;5527847;25;19993;-72
2024/04/10 10:37:06;;;;;;;3.83;3.20;;;16.00;80.50;;;;;;5527223;25;20005;-72
2024/04/10 10:39:34;;;;;;;6.30;2.40;;;15.80;80.30;;;;;;5525741;26;20009;-72
2024/04/10 10:42:03;;;;;;;5.88;2.80;;;15.90;80.50;;;;;;5525023;26;20447;-72
2024/04/10 10:44:30;;;;;;;4.78;1.42;;;16.00;78.40;;;;;;5525414;26;20329;-72
2024/04/10 10:46:58;;;;;;;2.90;2.38;;;16.10;79.50;;;;;;5494446;26;20200;-72
2024/04/10 10:49:26;;;;;;;4.25;1.85;;;16.50;78.80;;;;;;5527014;25;20016;-72
2024/04/10 10:51:55;;;;;;;5.70;2.45;;;17.10;78.00;;;;;;5526500;25;19997;-72
2024/04/10 10:54:23;;;;;;;8.60;2.00;;;17.80;75.20;;;;;;5526947;25;20074;-72
2024/04/10 10:56:50;;;;;;;6.43;2.58;;;18.30;75.20;;;;;;5526793;25;19998;-72
2024/04/10 10:59:17;;;;;;;5.30;2.20;;;18.70;74.70;;;;;;5527093;25;20106;-72
2024/04/10 11:01:44;;;;;;;5.20;2.65;;;18.70;73.30;;;;;;5525393;26;20005;-72
2024/04/10 11:04:15;;;;;;;6.00;2.67;;;18.40;73.60;;;;;;5527207;26;20043;-74
2024/04/10 11:06:43;;;;;;;4.90;3.15;;;18.50;74.20;;;;;;5525847;26;20427;-72
2024/04/10 11:09:12;;;;;;;6.32;2.33;;;18.80;73.20;;;;;;5524902;26;20447;-72
2024/04/10 11:11:40;;;;;;;6.10;2.95;;;19.10;74.30;;;;;;5527205;26;19993;-74
2024/04/10 11:14:21;;;;;;;3.75;2.33;;;19.30;72.70;;;;;;5495869;26;20000;-75
2024/04/10 11:16:57;;;;;;;5.10;2.28;;;19.50;72.70;;;;;;5527979;25;20399;-74
2024/04/10 11:19:24;;;;;;;7.43;2.45;;;19.90;72.40;;;;;;5525570;26;20001;-75
2024/04/10 11:21:54;;;;;;;5.90;2.10;;;19.80;72.10;;;;;;5495279;26;20331;-72
2024/04/10 11:24:21;;;;;;;6.55;2.38;;;19.30;72.10;;;;;;5525477;26;19997;-72
2024/04/10 11:26:48;;;;;;;4.47;2.30;;;18.60;72.50;;;;;;5526901;26;20045;-73
2024/04/10 11:29:15;;;;;;;4.40;2.35;;;18.10;73.90;;;;;;5525116;26;20001;-73
2024/04/10 11:31:42;;;;;;;4.55;2.72;;;18.40;74.40;;;;;;5527046;26;20011;-73
2024/04/10 11:34:10;;;;;;;2.58;1.88;;;19.10;73.70;;;;;;5524899;26;20009;-72
2024/04/10 11:36:37;;;;;;;4.68;2.13;;;18.90;72.90;;;;;;5526880;25;20073;-72
2024/04/10 11:39:04;;;;;;;4.07;2.53;;;18.50;73.50;;;;;;5526179;26;19997;-72
2024/04/10 11:41:32;;;;;;;4.55;2.15;;;18.30;73.20;;;;;;5527142;26;20337;-71
2024/04/10 11:43:59;;;;;;;4.13;1.58;;;18.50;70.10;;;;;;5524830;26;20025;-71
2024/04/10 11:46:26;;;;;;;3.88;1.58;;;18.80;69.40;;;;;;5525223;26;19994;-72
2024/04/10 11:48:53;;;;;;;1.65;1.42;;;19.40;68.70;;;;;;5525354;26;20323;-72
2024/04/10 11:51:21;;;;;;;1.90;1.77;;;19.90;68.30;;;;;;5525117;26;19993;-73
2024/04/10 11:53:48;;;;;;;6.45;2.47;;;20.20;68.60;;;;;;5524922;26;20018;-74
2024/04/10 11:56:15;;;;;;;5.63;1.85;;;20.50;68.50;;;;;;5525763;26;20324;-74
2024/04/10 11:58:42;;;;;;;6.50;2.25;;;20.30;68.50;;;;;;5526176;26;19998;-74
2024/04/10 12:01:10;;;;;;;3.35;1.42;;;20.00;69.20;;;;;;5524197;26;19998;-75
2024/04/10 12:03:37;;;;;;;2.65;1.60;;;19.50;69.70;;;;;;5493937;26;20008;-75
2024/04/10 12:06:06;;;;;;;2.03;1.65;;;18.80;70.40;;;;;;5526073;25;20001;-75
2024/04/10 12:08:33;;;;;;;5.40;2.53;;;18.40;70.70;;;;;;5526200;25;20009;-74
2024/04/10 12:11:00;;;;;;;4.82;2.65;;;18.00;72.30;;;;;;5524070;26;20073;-74
2024/04/10 12:13:28;;;;;;;4.57;2.08;;;17.60;72.80;;;;;;5524414;26;19998;-74
2024/04/10 12:15:55;;;;;;;7.80;3.20;;;17.30;73.70;;;;;;5524386;26;19998;-74
2024/04/10 12:18:22;;;;;;;4.90;2.78;;;17.10;74.20;;;;;;5523684;26;20342;-74
2024/04/10 12:20:50;;;;;;;4.45;2.20;;;16.80;74.20;;;;;;5524388;26;20213;-74
2024/04/10 12:23:17;;;;;;;3.83;1.65;;;16.70;74.70;;;;;;5525761;26;20004;-74
2024/04/10 12:25:44;;;;;;;6.75;2.05;;;16.50;75.00;;;;;;5525206;26;19994;-76
2024/04/10 12:28:11;;;;;;;2.83;2.03;;;16.40;75.50;;;;;;5525910;26;20002;-76
2024/04/10 12:30:39;;;;;;;3.63;2.25;;;16.30;76.00;;;;;;5524230;26;20020;-74
2024/04/10 12:33:06;;;;;;;3.88;1.63;;;16.00;75.90;;;;;;5493466;26;20013;-74
2024/04/10 12:38:19;;;;;;;5.18;2.22;;;16.20;75.90;;;;;;5525338;26;19998;-74
2024/04/10 12:40:58;;;;;;;3.95;2.60;;;16.20;75.70;;;;;;5493309;26;20522;-74
2024/04/10 12:43:25;;;;;;;3.47;1.63;;;16.00;76.60;;;;;;5525300;25;20098;-74
2024/04/10 12:45:52;;;;;;;5.10;2.08;;;15.90;76.20;;;;;;5525474;25;20002;-74
2024/04/10 12:48:20;;;;;;;3.75;2.30;;;16.00;76.90;;;;;;5493167;26;20511;-74
2024/04/10 12:50:51;;;;;;;3.15;2.50;;;16.40;76.80;;;;;;5525320;25;19997;-74
2024/04/10 12:53:18;;;;;;;5.93;2.75;;;16.90;75.50;;;;;;5492592;26;20013;-74
2024/04/10 12:55:54;;;;;;;4.90;1.85;;;17.10;75.30;;;;;;5525512;25;20069;-74
2024/04/10 12:58:21;;;;;;;3.58;1.80;;;17.90;73.70;;;;;;5523385;26;20077;-74
2024/04/10 13:00:50;;;;;;;4.55;2.58;;;18.70;70.80;;;;;;5525227;26;19993;-74
2024/04/10 13:03:19;;;;;;;3.15;1.42;;;19.20;66.80;;;;;;5525053;25;20316;-74